createdAt,value
2022-10-01T00:02:25.435Z,8.24
2022-10-01T00:04:55.372Z,8.54
2022-10-01T00:07:23.029Z,8.43
2022-10-01T00:09:50.764Z,8.45
2022-10-01T00:12:17.513Z,8.38
2022-10-01T00:14:46.312Z,8.24
2022-10-01T00:17:13.092Z,8.14
2022-10-01T00:19:40.503Z,8.26
2022-10-01T00:22:18.945Z,7.87
2022-10-01T00:24:55.323Z,8.17
2022-10-01T00:27:22.054Z,8.10
2022-10-01T00:29:49.179Z,7.86
2022-10-01T00:32:16.011Z,7.74
2022-10-01T00:34:42.927Z,7.62
2022-10-01T00:37:12.409Z,7.59
2022-10-01T00:39:39.595Z,7.53
2022-10-01T00:42:24.116Z,7.36
2022-10-01T00:44:54.055Z,6.83
2022-10-01T00:47:28.753Z,7.18
2022-10-01T00:50:01.361Z,7.04
2022-10-01T00:52:30.882Z,7.25
2022-10-01T00:55:28.846Z,7.26
2022-10-01T00:57:56.502Z,7.03
2022-10-01T01:00:23.385Z,7.08
2022-10-01T01:02:52.743Z,6.55
2022-10-01T01:05:20.257Z,6.76
2022-10-01T01:07:51.073Z,6.82
2022-10-01T01:10:35.160Z,6.23
2022-10-01T01:13:09.048Z,6.31
2022-10-01T01:15:55.340Z,6.58
2022-10-01T01:18:33.594Z,6.32
2022-10-01T01:21:21.223Z,6.43
2022-10-01T01:24:11.734Z,6.41
2022-10-01T01:26:54.490Z,6.45
2022-10-01T01:29:34.688Z,6.38
2022-10-01T01:32:09.435Z,6.25
2022-10-01T01:34:41.578Z,6.13
2022-10-01T01:38:09.247Z,6.48
2022-10-01T01:40:37.470Z,6.33
2022-10-01T01:43:06.553Z,6.39
2022-10-01T01:45:35.567Z,6.19
2022-10-01T01:48:03.062Z,6.23
2022-10-01T01:50:34.431Z,6.10
2022-10-01T01:53:02.138Z,5.82
2022-10-01T01:55:29.965Z,6.02
2022-10-01T01:57:57.118Z,6.09
2022-10-01T02:00:24.463Z,6.19
2022-10-01T02:02:54.450Z,5.93
2022-10-01T02:05:26.243Z,6.23
2022-10-01T02:08:35.805Z,6.10
2022-10-01T02:11:20.832Z,6.01
2022-10-01T02:14:02.750Z,5.70
2022-10-01T02:16:56.870Z,5.97
2022-10-01T02:19:33.647Z,5.94
2022-10-01T02:22:18.594Z,5.68
2022-10-01T02:24:56.980Z,5.83
2022-10-01T02:27:26.647Z,5.90
2022-10-01T02:29:55.311Z,5.74
2022-10-01T02:32:22.200Z,5.80
2022-10-01T02:34:50.439Z,5.76
2022-10-01T02:37:20.622Z,5.93
2022-10-01T02:39:48.058Z,5.44
2022-10-01T02:42:52.412Z,5.97
2022-10-01T02:45:22.818Z,5.76
2022-10-01T02:47:56.197Z,5.70
2022-10-01T02:50:24.508Z,5.68
2022-10-01T02:52:59.207Z,5.44
2022-10-01T02:55:28.893Z,5.49
2022-10-01T02:57:56.635Z,5.31
2022-10-01T03:00:26.980Z,5.24
2022-10-01T03:02:55.018Z,5.48
2022-10-01T03:05:22.565Z,5.28
2022-10-01T03:07:50.367Z,5.31
2022-10-01T03:10:17.192Z,5.09
2022-10-01T03:12:46.566Z,4.97
2022-10-01T03:15:14.470Z,5.18
2022-10-01T03:17:41.135Z,4.88
2022-10-01T03:20:08.596Z,5.27
2022-10-01T03:22:35.464Z,5.05
2022-10-01T03:26:01.283Z,4.97
2022-10-01T03:28:28.702Z,5.02
2022-10-01T03:31:05.291Z,5.02
2022-10-01T03:33:31.919Z,4.95
2022-10-01T03:35:58.566Z,4.95
2022-10-01T03:38:25.193Z,4.72
2022-10-01T03:40:51.760Z,5.13
2022-10-01T03:43:18.657Z,4.48
2022-10-01T03:45:45.255Z,4.60
2022-10-01T03:48:11.955Z,4.87
2022-10-01T03:50:39.097Z,4.39
2022-10-01T03:53:06.558Z,4.85
2022-10-01T03:55:33.133Z,4.90
2022-10-01T03:57:59.908Z,4.31
2022-10-01T04:00:26.472Z,3.65
2022-10-01T04:02:54.468Z,4.33
2022-10-01T04:05:21.848Z,4.21
2022-10-01T04:07:50.299Z,4.43
2022-10-01T04:10:16.986Z,4.09
2022-10-01T04:12:44.239Z,4.37
2022-10-01T04:15:10.914Z,4.66
2022-10-01T04:17:37.560Z,4.69
2022-10-01T04:20:04.389Z,4.42
2022-10-01T04:22:31.314Z,4.38
2022-10-01T04:24:57.940Z,4.07
2022-10-01T04:27:24.904Z,4.41
2022-10-01T04:29:53.498Z,4.52
2022-10-01T04:32:21.539Z,4.53
2022-10-01T04:34:54.245Z,4.49
2022-10-01T04:37:22.392Z,4.31
2022-10-01T04:39:49.010Z,4.61
2022-10-01T04:42:15.727Z,4.65
2022-10-01T04:44:42.321Z,4.49
2022-10-01T04:47:09.207Z,4.42
2022-10-01T04:49:36.123Z,4.45
2022-10-01T04:52:03.389Z,4.60
2022-10-01T04:54:30.666Z,4.29
2022-10-01T04:56:58.266Z,4.10
2022-10-01T04:59:25.755Z,4.79
2022-10-01T05:01:52.820Z,4.80
2022-10-01T05:04:23.875Z,4.90
2022-10-01T05:06:52.435Z,4.88
2022-10-01T05:09:19.782Z,4.81
2022-10-01T05:11:46.388Z,5.00
2022-10-01T05:18:08.155Z,4.98
2022-10-01T05:20:35.152Z,5.00
2022-10-01T05:23:01.794Z,5.30
2022-10-01T05:25:28.389Z,4.38
2022-10-01T05:28:05.008Z,5.15
2022-10-01T05:30:33.007Z,4.92
2022-10-01T05:33:01.680Z,4.31
2022-10-01T05:35:28.900Z,4.53
2022-10-01T05:38:02.761Z,4.92
2022-10-01T05:40:30.106Z,5.62
2022-10-01T05:42:58.405Z,5.56
2022-10-01T05:45:30.116Z,5.88
2022-10-01T05:48:01.135Z,5.51
2022-10-01T05:50:32.530Z,5.98
2022-10-01T05:53:00.121Z,6.25
2022-10-01T05:55:31.788Z,6.26
2022-10-01T05:58:03.042Z,6.36
2022-10-01T06:00:30.669Z,5.85
2022-10-01T06:03:01.333Z,6.62
2022-10-01T06:05:29.857Z,6.71
2022-10-01T06:07:56.510Z,6.16
2022-10-01T06:10:24.905Z,6.68
2022-10-01T06:12:51.893Z,6.78
2022-10-01T06:15:18.634Z,7.02
2022-10-01T06:17:45.548Z,6.42
2022-10-01T06:20:15.232Z,6.94
2022-10-01T06:22:43.138Z,7.27
2022-10-01T06:25:11.604Z,7.38
2022-10-01T06:27:39.143Z,7.11
2022-10-01T06:30:06.597Z,7.02
2022-10-01T06:32:35.061Z,7.55
2022-10-01T06:35:02.906Z,7.62
2022-10-01T06:37:29.883Z,7.43
2022-10-01T06:39:56.733Z,7.77
2022-10-01T06:42:28.656Z,7.62
2022-10-01T06:44:55.320Z,7.37
2022-10-01T06:47:21.920Z,7.44
2022-10-01T06:49:48.560Z,7.80
2022-10-01T06:52:34.797Z,7.51
2022-10-01T06:55:02.006Z,7.86
2022-10-01T06:57:29.068Z,8.07
2022-10-01T06:59:55.861Z,7.94
2022-10-01T07:02:28.046Z,8.19
2022-10-01T07:05:00.145Z,8.10
2022-10-01T07:07:31.052Z,8.25
2022-10-01T07:09:59.085Z,7.87
2022-10-01T07:12:27.071Z,8.23
2022-10-01T07:14:54.651Z,8.30
2022-10-01T07:17:22.209Z,8.36
2022-10-01T07:19:48.901Z,8.27
2022-10-01T07:22:15.516Z,8.35
2022-10-01T07:24:42.215Z,8.38
2022-10-01T07:27:08.768Z,7.84
2022-10-01T07:29:35.728Z,8.52
2022-10-01T07:32:04.073Z,8.59
2022-10-01T07:34:33.625Z,8.58
2022-10-01T07:37:00.778Z,8.70
2022-10-01T07:39:27.428Z,8.54
2022-10-01T07:41:54.098Z,8.77
2022-10-01T07:44:21.252Z,8.33
2022-10-01T07:47:39.399Z,8.97
2022-10-01T07:50:07.056Z,8.80
2022-10-01T07:52:34.259Z,8.83
2022-10-01T07:55:01.748Z,9.09
2022-10-01T07:57:28.667Z,9.15
2022-10-01T07:59:56.195Z,8.75
2022-10-01T08:02:23.964Z,9.19
2022-10-01T08:05:09.484Z,8.90
2022-10-01T08:08:05.652Z,9.44
2022-10-01T08:10:34.808Z,9.43
2022-10-01T08:13:04.704Z,9.35
2022-10-01T08:15:32.104Z,9.41
2022-10-01T08:18:02.157Z,9.58
2022-10-01T08:20:28.922Z,9.25
2022-10-01T08:23:02.073Z,9.57
2022-10-01T08:25:28.707Z,9.49
2022-10-01T08:27:55.301Z,9.59
2022-10-01T08:30:22.624Z,9.53
2022-10-01T08:32:54.446Z,9.64
2022-10-01T08:35:21.168Z,9.60
2022-10-01T08:37:48.389Z,9.54
2022-10-01T08:40:15.460Z,9.79
2022-10-01T08:42:50.054Z,9.53
2022-10-01T08:45:23.584Z,9.49
2022-10-01T08:51:17.093Z,9.97
2022-10-01T08:54:09.198Z,10.05
2022-10-01T08:56:40.004Z,10.23
2022-10-01T08:59:36.288Z,10.21
2022-10-01T09:02:29.013Z,10.26
2022-10-01T09:05:02.525Z,10.26
2022-10-01T09:07:32.261Z,10.42
2022-10-01T09:10:04.172Z,10.43
2022-10-01T09:13:31.717Z,10.42
2022-10-01T09:16:16.606Z,10.67
